ジャージー島 の空港の天気 - METARとTAF

ジャージー空港 ( EGJJ / JER ) - ジャージー島 ジャージー島
飛行場実況気象(Metar)
観測時間07/20 12:50 BST (07/20 11:50 UTC)
風向・風速西南西 10m/s
視程10km以上
天気現象
少しの雲 雲底高度 370m
全天の4割程度の雲 雲底高度 1130m
気温20℃
湿度83%
気圧1012hPa
METAREGJJ 201150Z 25019KT 9999 FEW012 SCT037 20/17 Q1012
過去の天気等 Google飛行場航空写真 Wunderground天気予報

過去48時間のMETAR

飛行場予報(TAF)
発表時間: 7/20 12:01 BST (7/20 11:01 UTC)
予報対象時間: 20日13時 BST ~ 20日22時 BST
風向・風速西 7m/s
視程10km以上
少しの雲 雲底高度 300m
全天の8割程度の雲 雲底高度 1130m
20日13時 BST ~ 20日18時 BST に 確率 30% で一時的に
全天の8割程度の雲 雲底高度 300m
TAF EGJJ 201101Z 2012/2021 26014KT 9999 FEW010 BKN037
PROB30 TEMPO 2012/2017 BKN010